createdAt,value
2016-09-10T00:00:41.507Z,0
2016-09-10T00:01:41.470Z,0
2016-09-10T00:02:41.469Z,0
2016-09-10T00:03:41.464Z,0
2016-09-10T00:04:41.467Z,0
2016-09-10T00:05:41.459Z,0
2016-09-10T00:06:41.460Z,0
2016-09-10T00:08:41.494Z,0
2016-09-10T00:09:41.797Z,0
2016-09-10T00:11:41.459Z,0
2016-09-10T00:12:42.303Z,0
2016-09-10T00:13:42.205Z,0
2016-09-10T00:14:41.573Z,0
2016-09-10T00:15:41.447Z,0
2016-09-10T00:16:42.148Z,0
2016-09-10T00:17:42.285Z,0
2016-09-10T00:18:42.995Z,0
2016-09-10T00:20:41.964Z,0
2016-09-10T00:21:41.628Z,0
2016-09-10T00:22:41.919Z,0
2016-09-10T00:23:41.488Z,0
2016-09-10T00:24:41.399Z,0
2016-09-10T00:25:41.428Z,0
2016-09-10T00:26:41.394Z,0
2016-09-10T00:27:41.702Z,0
2016-09-10T00:28:41.704Z,0
2016-09-10T00:29:41.402Z,0
2016-09-10T00:30:41.397Z,0
2016-09-10T00:31:41.494Z,0
2016-09-10T00:32:41.398Z,0
2016-09-10T00:33:41.374Z,0
2016-09-10T00:34:41.773Z,0
2016-09-10T00:35:41.385Z,0
2016-09-10T00:36:41.385Z,0
2016-09-10T00:37:41.372Z,0
2016-09-10T00:38:41.371Z,0
2016-09-10T00:39:41.399Z,0
2016-09-10T00:40:41.364Z,0
2016-09-10T00:41:41.353Z,0
2016-09-10T00:42:41.367Z,0
2016-09-10T00:43:41.380Z,0
2016-09-10T00:44:41.368Z,0
2016-09-10T00:45:41.880Z,0
2016-09-10T00:46:41.369Z,0
2016-09-10T00:47:41.333Z,0
2016-09-10T00:48:41.495Z,0
2016-09-10T00:49:41.359Z,0
2016-09-10T00:50:41.400Z,0
2016-09-10T00:51:41.630Z,0
2016-09-10T00:52:41.343Z,0
2016-09-10T00:53:41.372Z,0
2016-09-10T00:54:41.680Z,0
2016-09-10T00:55:41.309Z,0
2016-09-10T00:56:41.629Z,0
2016-09-10T00:57:41.297Z,0
2016-09-10T00:58:41.618Z,0
2016-09-10T01:00:45.738Z,0
2016-09-10T01:01:42.838Z,0
2016-09-10T01:02:42.057Z,0
2016-09-10T01:03:43.172Z,0
2016-09-10T01:04:41.292Z,0
2016-09-10T01:05:41.305Z,0
2016-09-10T01:06:41.270Z,0
2016-09-10T01:07:41.726Z,0
2016-09-10T01:08:44.785Z,0
2016-09-10T01:09:44.024Z,0
2016-09-10T01:10:43.379Z,0
2016-09-10T01:11:42.963Z,0
2016-09-10T01:12:42.268Z,0
2016-09-10T01:13:41.418Z,0
2016-09-10T01:14:41.544Z,0
2016-09-10T01:15:42.161Z,0
2016-09-10T01:16:41.341Z,0
2016-09-10T01:17:41.249Z,0
2016-09-10T01:18:41.852Z,0
2016-09-10T01:19:41.355Z,0
2016-09-10T01:20:41.539Z,0
2016-09-10T01:21:41.600Z,0
2016-09-10T01:22:41.277Z,0
2016-09-10T01:23:41.243Z,0
2016-09-10T01:24:41.217Z,0
2016-09-10T01:26:11.038Z,0
2016-09-10T01:26:42.561Z,0
2016-09-10T01:27:42.127Z,0
2016-09-10T01:28:42.166Z,0
2016-09-10T01:29:41.517Z,0
2016-09-10T01:30:42.384Z,0
2016-09-10T01:31:41.793Z,0
2016-09-10T01:32:41.509Z,0
2016-09-10T01:33:41.585Z,0
2016-09-10T01:34:42.965Z,0
2016-09-10T01:35:42.362Z,0
2016-09-10T01:36:42.479Z,0
2016-09-10T01:37:42.478Z,0
2016-09-10T01:38:56.070Z,0
2016-09-10T01:39:41.887Z,0
2016-09-10T01:40:41.811Z,0
2016-09-10T01:41:41.793Z,0
2016-09-10T01:42:41.214Z,0
2016-09-10T01:43:41.465Z,0
2016-09-10T01:44:41.454Z,0
2016-09-10T01:45:41.172Z,0
2016-09-10T01:46:41.544Z,0
2016-09-10T01:47:41.746Z,0
2016-09-10T01:48:41.610Z,0
2016-09-10T01:49:41.132Z,0
2016-09-10T01:50:41.450Z,0
2016-09-10T01:51:41.184Z,0
2016-09-10T01:52:41.992Z,0
2016-09-10T01:53:41.121Z,0
2016-09-10T01:54:41.221Z,0
2016-09-10T01:55:41.143Z,0
2016-09-10T01:56:41.398Z,0
2016-09-10T01:57:41.138Z,0
2016-09-10T01:58:41.410Z,0
2016-09-10T01:59:41.164Z,0
2016-09-10T02:00:41.399Z,0
2016-09-10T02:01:41.425Z,0
2016-09-10T02:02:41.110Z,0
2016-09-10T02:03:41.094Z,0
2016-09-10T02:04:41.108Z,0
2016-09-10T02:05:41.064Z,0
2016-09-10T02:06:41.388Z,0
2016-09-10T02:07:41.066Z,0
2016-09-10T02:08:41.077Z,0
2016-09-10T02:09:41.600Z,0
2016-09-10T02:10:41.058Z,0
2016-09-10T02:11:41.231Z,0
2016-09-10T02:12:41.107Z,0
2016-09-10T02:13:41.495Z,0
2016-09-10T02:14:41.075Z,0
2016-09-10T02:15:41.775Z,0
2016-09-10T02:16:41.656Z,0
2016-09-10T02:19:42.379Z,0
2016-09-10T02:20:41.896Z,0
2016-09-10T02:21:43.344Z,0
2016-09-10T02:22:41.567Z,0
2016-09-10T02:23:41.659Z,0
2016-09-10T02:24:41.088Z,0
2016-09-10T02:25:41.025Z,0
2016-09-10T02:26:41.578Z,0
2016-09-10T02:27:42.931Z,0
2016-09-10T02:28:42.735Z,0
2016-09-10T02:29:42.519Z,0
2016-09-10T02:30:42.092Z,0
2016-09-10T02:31:41.317Z,0
2016-09-10T02:32:40.979Z,0
2016-09-10T02:33:41.028Z,0
2016-09-10T02:34:40.989Z,0
2016-09-10T02:35:41.027Z,0
2016-09-10T02:36:41.634Z,0
2016-09-10T02:37:41.267Z,0
2016-09-10T02:38:40.960Z,0
2016-09-10T02:39:41.016Z,0
2016-09-10T02:40:41.366Z,0
2016-09-10T02:41:40.963Z,0
2016-09-10T02:42:40.954Z,0
2016-09-10T02:44:42.021Z,0
2016-09-10T02:45:56.229Z,0
2016-09-10T02:46:56.173Z,0
2016-09-10T02:47:56.155Z,0
2016-09-10T02:48:41.625Z,0
2016-09-10T02:49:40.938Z,0
2016-09-10T02:50:41.222Z,0
2016-09-10T02:51:40.940Z,0
2016-09-10T02:52:40.910Z,0
2016-09-10T02:53:42.261Z,0
2016-09-10T02:54:41.154Z,0
2016-09-10T02:55:41.399Z,0
2016-09-10T02:56:41.159Z,0
2016-09-10T02:57:40.903Z,0
2016-09-10T02:58:41.438Z,0
2016-09-10T02:59:40.921Z,0
2016-09-10T03:00:41.044Z,0
2016-09-10T03:01:40.921Z,0
2016-09-10T03:02:40.882Z,0
2016-09-10T03:03:40.872Z,0
2016-09-10T03:04:40.868Z,0
2016-09-10T03:05:40.895Z,0
2016-09-10T03:06:41.473Z,0
2016-09-10T03:07:40.854Z,0
2016-09-10T03:08:40.949Z,0
2016-09-10T03:09:40.857Z,0
2016-09-10T03:10:41.141Z,0
2016-09-10T03:11:41.731Z,0
2016-09-10T03:12:40.853Z,0
2016-09-10T03:13:41.149Z,0
2016-09-10T03:14:40.847Z,0
2016-09-10T03:15:41.260Z,0
2016-09-10T03:16:40.825Z,0
2016-09-10T03:17:40.835Z,0
2016-09-10T03:18:40.876Z,0
2016-09-10T03:19:40.943Z,0
2016-09-10T03:20:40.863Z,0
2016-09-10T03:21:41.157Z,0
2016-09-10T03:22:41.162Z,0
2016-09-10T03:23:41.160Z,0
2016-09-10T03:24:41.130Z,0
2016-09-10T03:25:40.815Z,0
2016-09-10T03:26:41.087Z,0
2016-09-10T03:27:40.793Z,0
2016-09-10T03:28:40.802Z,0
2016-09-10T03:29:40.806Z,0
2016-09-10T03:30:40.847Z,0
2016-09-10T03:31:40.776Z,0
2016-09-10T03:32:41.391Z,0
2016-09-10T03:33:40.916Z,0
2016-09-10T03:34:41.190Z,0
2016-09-10T03:35:42.312Z,0
2016-09-10T03:36:43.755Z,0
2016-09-10T03:37:43.644Z,0
2016-09-10T03:38:41.296Z,0
2016-09-10T03:39:42.966Z,0
2016-09-10T03:40:41.447Z,0
2016-09-10T03:41:41.723Z,0
2016-09-10T03:42:40.801Z,0
2016-09-10T03:43:40.745Z,0
2016-09-10T03:44:41.067Z,0
2016-09-10T03:45:43.363Z,0
2016-09-10T03:46:45.099Z,0
2016-09-10T03:47:41.702Z,0
2016-09-10T03:48:41.443Z,0
2016-09-10T03:49:41.040Z,0
2016-09-10T03:50:41.010Z,0
2016-09-10T03:51:40.712Z,0
2016-09-10T03:52:40.728Z,0
2016-09-10T03:53:41.039Z,0
2016-09-10T03:54:40.710Z,0
2016-09-10T03:55:41.012Z,0
2016-09-10T03:56:40.701Z,0
2016-09-10T03:57:41.033Z,0
2016-09-10T03:58:41.087Z,0
2016-09-10T03:59:41.038Z,0
2016-09-10T04:00:40.742Z,0
2016-09-10T04:01:40.759Z,0
2016-09-10T04:02:42.542Z,0
2016-09-10T04:03:41.579Z,0
2016-09-10T04:04:42.069Z,0
2016-09-10T04:05:41.112Z,0
2016-09-10T04:06:41.035Z,0
2016-09-10T04:07:40.654Z,0
2016-09-10T04:08:40.641Z,0
2016-09-10T04:09:40.694Z,0
2016-09-10T04:10:41.047Z,0
2016-09-10T04:11:41.884Z,0
2016-09-10T04:12:41.993Z,0
2016-09-10T04:13:41.836Z,0
2016-09-10T04:14:40.624Z,0
2016-09-10T04:15:56.288Z,0
2016-09-10T04:16:40.733Z,0
2016-09-10T04:17:41.229Z,0
2016-09-10T04:18:40.952Z,0
2016-09-10T04:19:40.911Z,0
2016-09-10T04:20:40.906Z,0
2016-09-10T04:21:40.592Z,0
2016-09-10T04:22:40.606Z,5
2016-09-10T04:23:40.650Z,5
2016-09-10T04:24:40.580Z,5
2016-09-10T04:25:40.755Z,5
2016-09-10T04:26:40.883Z,5
2016-09-10T04:27:40.883Z,5
2016-09-10T04:28:40.889Z,5
2016-09-10T04:29:40.560Z,5
2016-09-10T04:30:40.950Z,10
2016-09-10T04:31:41.194Z,10
2016-09-10T04:32:40.786Z,10
2016-09-10T04:33:40.682Z,10
2016-09-10T04:34:40.560Z,10
2016-09-10T04:35:40.570Z,10
2016-09-10T04:36:40.554Z,10
2016-09-10T04:37:40.832Z,15
2016-09-10T04:38:41.196Z,15
2016-09-10T04:39:41.313Z,15
2016-09-10T04:40:40.641Z,15
2016-09-10T04:41:40.866Z,20
2016-09-10T04:42:40.855Z,20
2016-09-10T04:43:40.832Z,20
2016-09-10T04:44:40.508Z,20
2016-09-10T04:45:40.650Z,20
2016-09-10T04:46:40.542Z,25
2016-09-10T04:47:40.639Z,25
2016-09-10T04:48:40.886Z,25
2016-09-10T04:49:40.550Z,25
2016-09-10T04:50:40.520Z,30
2016-09-10T04:51:40.472Z,30
2016-09-10T04:52:40.526Z,30
2016-09-10T04:53:40.492Z,30
2016-09-10T04:54:43.527Z,35
2016-09-10T04:55:41.947Z,35
2016-09-10T04:56:42.371Z,40
2016-09-10T04:57:41.936Z,40
2016-09-10T04:58:40.690Z,45
2016-09-10T04:59:41.282Z,45
2016-09-10T05:00:40.493Z,50
2016-09-10T05:01:40.754Z,55
2016-09-10T05:02:40.770Z,55
2016-09-10T05:03:43.481Z,60
2016-09-10T05:04:43.593Z,60
2016-09-10T05:05:43.774Z,65
2016-09-10T05:06:40.750Z,65
2016-09-10T05:07:41.720Z,65
2016-09-10T05:08:40.495Z,70
2016-09-10T05:09:40.743Z,65
2016-09-10T05:10:40.838Z,65
2016-09-10T05:11:40.745Z,65
2016-09-10T05:12:40.745Z,65
2016-09-10T05:13:40.403Z,65
2016-09-10T05:14:40.549Z,65
2016-09-10T05:15:40.417Z,65
2016-09-10T05:16:40.422Z,70
2016-09-10T05:17:41.167Z,70
2016-09-10T05:18:40.533Z,70
2016-09-10T05:19:41.319Z,75
2016-09-10T05:20:41.849Z,75
2016-09-10T05:21:41.036Z,80
2016-09-10T05:23:40.989Z,80
2016-09-10T05:24:40.389Z,85
2016-09-10T05:25:40.435Z,90
2016-09-10T05:26:40.700Z,90
2016-09-10T05:27:40.381Z,95
2016-09-10T05:28:40.381Z,100
2016-09-10T05:29:42.036Z,100
2016-09-10T05:30:41.350Z,105
2016-09-10T05:31:42.142Z,110
2016-09-10T05:32:41.674Z,110
2016-09-10T05:33:40.427Z,115
2016-09-10T05:34:40.921Z,115
2016-09-10T05:35:40.599Z,120
2016-09-10T05:36:40.398Z,120
2016-09-10T05:37:40.712Z,130
2016-09-10T05:38:40.693Z,130
2016-09-10T05:39:40.658Z,135
2016-09-10T05:40:40.829Z,140
2016-09-10T05:41:40.735Z,145
2016-09-10T05:42:40.428Z,150
2016-09-10T05:43:40.413Z,155
2016-09-10T05:44:40.412Z,155
2016-09-10T05:45:40.372Z,160
2016-09-10T05:46:40.649Z,170
2016-09-10T05:47:40.621Z,180
2016-09-10T05:48:40.323Z,190
2016-09-10T05:49:40.380Z,205
2016-09-10T05:50:40.936Z,215
2016-09-10T05:51:40.634Z,225
2016-09-10T05:52:40.625Z,230
2016-09-10T05:53:40.354Z,230
2016-09-10T05:54:40.343Z,230
2016-09-10T05:55:40.470Z,230
2016-09-10T05:56:40.670Z,235
2016-09-10T05:57:40.645Z,235
2016-09-10T05:58:40.315Z,220
2016-09-10T05:59:40.345Z,215
2016-09-10T06:00:40.608Z,215
2016-09-10T06:01:40.355Z,230
2016-09-10T06:02:40.349Z,205
2016-09-10T06:03:40.312Z,210
2016-09-10T06:04:40.378Z,215
2016-09-10T06:05:40.413Z,215
2016-09-10T06:06:40.628Z,215
2016-09-10T06:07:40.621Z,215
2016-09-10T06:08:40.305Z,210
2016-09-10T06:09:40.628Z,215
2016-09-10T06:10:40.903Z,225
2016-09-10T06:11:40.900Z,230
2016-09-10T06:12:42.504Z,245
2016-09-10T06:13:44.855Z,255
2016-09-10T06:14:41.745Z,270
2016-09-10T06:15:41.976Z,275
2016-09-10T06:16:40.910Z,285
2016-09-10T06:17:40.597Z,295
2016-09-10T06:18:40.299Z,305
2016-09-10T06:19:40.593Z,295
2016-09-10T06:20:40.291Z,300
2016-09-10T06:22:43.117Z,310
2016-09-10T06:23:43.606Z,310
2016-09-10T06:24:40.933Z,375
2016-09-10T06:25:40.326Z,340
2016-09-10T06:26:41.142Z,370
2016-09-10T06:27:40.292Z,330
2016-09-10T06:28:40.610Z,325
2016-09-10T06:29:40.625Z,330
2016-09-10T06:30:40.645Z,340
2016-09-10T06:31:40.330Z,355
2016-09-10T06:32:40.439Z,370
2016-09-10T06:33:40.290Z,385
2016-09-10T06:34:40.293Z,405
2016-09-10T06:35:40.286Z,420
2016-09-10T06:36:40.608Z,455
2016-09-10T06:37:40.280Z,460
2016-09-10T06:38:40.914Z,430
2016-09-10T06:39:40.476Z,415
2016-09-10T06:41:41.304Z,410
2016-09-10T06:42:40.747Z,425
2016-09-10T06:43:40.591Z,475
2016-09-10T06:44:40.596Z,535
2016-09-10T06:45:40.321Z,535
2016-09-10T06:46:42.073Z,490
2016-09-10T06:47:42.034Z,435
2016-09-10T06:48:56.538Z,560
2016-09-10T06:49:40.909Z,465
2016-09-10T06:50:40.920Z,605
2016-09-10T06:51:40.525Z,625
2016-09-10T06:52:40.318Z,630
2016-09-10T06:53:41.087Z,555
2016-09-10T06:54:40.319Z,625
2016-09-10T06:55:40.621Z,585
2016-09-10T06:56:40.317Z,670
2016-09-10T06:57:40.954Z,680
2016-09-10T06:58:40.392Z,675
2016-09-10T06:59:40.483Z,655
2016-09-10T07:00:40.960Z,655
2016-09-10T07:01:40.318Z,655
2016-09-10T07:02:40.707Z,640
2016-09-10T07:03:40.369Z,625
2016-09-10T07:04:40.667Z,620
2016-09-10T07:05:40.417Z,525
2016-09-10T07:06:40.371Z,505
2016-09-10T07:07:40.706Z,505
2016-09-10T07:08:41.108Z,505
2016-09-10T07:09:40.383Z,520
2016-09-10T07:10:40.708Z,545
2016-09-10T07:11:40.396Z,710
2016-09-10T07:12:40.414Z,625
2016-09-10T07:13:40.712Z,720
2016-09-10T07:14:40.446Z,720
2016-09-10T07:15:40.453Z,585
2016-09-10T07:16:40.562Z,635
2016-09-10T07:17:40.440Z,775
2016-09-10T07:18:40.973Z,720
2016-09-10T07:19:40.567Z,600
2016-09-10T07:20:40.515Z,705
2016-09-10T07:21:40.754Z,675
2016-09-10T07:22:41.097Z,695
2016-09-10T07:23:40.791Z,775
2016-09-10T07:24:40.811Z,650
2016-09-10T07:25:40.818Z,850
2016-09-10T07:26:40.537Z,880
2016-09-10T07:27:40.530Z,930
2016-09-10T07:28:41.202Z,895
2016-09-10T07:29:41.202Z,910
2016-09-10T07:30:45.825Z,870
2016-09-10T07:31:44.347Z,940
2016-09-10T07:32:41.613Z,935
2016-09-10T07:33:42.071Z,920
2016-09-10T07:34:41.427Z,815
2016-09-10T07:35:40.723Z,930
2016-09-10T07:36:40.871Z,935
2016-09-10T07:37:40.886Z,720
2016-09-10T07:38:41.184Z,760
2016-09-10T07:39:42.284Z,875
2016-09-10T07:40:43.216Z,1005
2016-09-10T07:41:43.997Z,910
2016-09-10T07:42:41.467Z,860
2016-09-10T07:43:40.960Z,900
2016-09-10T07:44:41.397Z,910
2016-09-10T07:45:55.185Z,900
2016-09-10T07:46:41.467Z,835
2016-09-10T07:47:40.646Z,820
2016-09-10T07:48:40.676Z,855
2016-09-10T07:49:40.684Z,850
2016-09-10T07:50:40.804Z,880
2016-09-10T07:51:40.704Z,900
2016-09-10T07:52:40.699Z,885
2016-09-10T07:53:40.699Z,875
2016-09-10T07:54:40.726Z,900
2016-09-10T07:55:40.725Z,900
2016-09-10T07:56:42.434Z,860
2016-09-10T07:57:41.949Z,885
2016-09-10T07:58:48.732Z,915
2016-09-10T07:59:42.281Z,920
2016-09-10T08:01:41.387Z,945
2016-09-10T08:03:41.156Z,960
2016-09-10T08:04:40.798Z,950
2016-09-10T08:05:41.551Z,950
2016-09-10T08:06:41.611Z,920
2016-09-10T08:07:42.252Z,920
2016-09-10T08:08:42.246Z,925
2016-09-10T08:09:44.366Z,900
2016-09-10T08:10:41.620Z,685
2016-09-10T08:11:41.293Z,570
2016-09-10T08:12:40.950Z,570
2016-09-10T08:13:40.928Z,565
2016-09-10T08:14:40.954Z,565
2016-09-10T08:15:41.647Z,570
2016-09-10T08:16:40.923Z,570
2016-09-10T08:17:41.270Z,560
2016-09-10T08:18:41.237Z,560
2016-09-10T08:19:41.648Z,555
2016-09-10T08:20:41.247Z,555
2016-09-10T08:21:41.448Z,555
2016-09-10T08:22:41.274Z,550
2016-09-10T08:23:40.996Z,550
2016-09-10T08:24:41.307Z,550
2016-09-10T08:25:40.994Z,545
2016-09-10T08:26:41.313Z,545
2016-09-10T08:27:41.297Z,540
2016-09-10T08:28:41.318Z,540
2016-09-10T08:29:41.370Z,540
2016-09-10T08:30:41.014Z,540
2016-09-10T08:31:41.517Z,540
2016-09-10T08:32:41.031Z,535
2016-09-10T08:33:41.553Z,535
2016-09-10T08:34:41.348Z,530
2016-09-10T08:35:41.378Z,535
2016-09-10T08:36:41.531Z,525
2016-09-10T08:37:41.059Z,520
2016-09-10T08:38:41.088Z,520
2016-09-10T08:39:41.204Z,520
2016-09-10T08:40:41.430Z,515
2016-09-10T08:41:41.114Z,515
2016-09-10T08:42:41.137Z,515
2016-09-10T08:43:41.094Z,520
2016-09-10T08:44:42.013Z,520
2016-09-10T08:45:41.147Z,520
2016-09-10T08:46:41.290Z,520
2016-09-10T08:47:41.423Z,515
2016-09-10T08:48:45.416Z,510
2016-09-10T08:49:44.292Z,510
2016-09-10T08:50:45.671Z,510
2016-09-10T08:51:55.109Z,505
2016-09-10T08:52:42.394Z,505
2016-09-10T08:53:41.272Z,505
2016-09-10T08:54:42.102Z,500
2016-09-10T08:55:41.448Z,500
2016-09-10T08:56:41.666Z,500
2016-09-10T08:58:43.720Z,500
2016-09-10T08:59:44.867Z,500
2016-09-10T09:00:42.647Z,495
2016-09-10T09:01:42.386Z,495
2016-09-10T09:02:41.522Z,500
2016-09-10T09:03:41.641Z,495
2016-09-10T09:04:41.670Z,490
2016-09-10T09:05:41.248Z,485
2016-09-10T09:06:41.550Z,485
2016-09-10T09:07:41.522Z,485
2016-09-10T09:08:41.250Z,485
2016-09-10T09:09:41.816Z,475
2016-09-10T09:10:41.527Z,470
2016-09-10T09:11:41.243Z,465
2016-09-10T09:12:41.249Z,465
2016-09-10T09:13:41.428Z,460
2016-09-10T09:14:41.605Z,460
2016-09-10T09:15:41.242Z,455
2016-09-10T09:16:41.569Z,455
2016-09-10T09:17:41.473Z,450
2016-09-10T09:18:41.305Z,450
2016-09-10T09:19:41.653Z,445
2016-09-10T09:20:41.576Z,445
2016-09-10T09:21:41.408Z,445
2016-09-10T09:22:41.607Z,445
2016-09-10T09:23:41.589Z,440
2016-09-10T09:24:41.591Z,435
2016-09-10T09:25:41.293Z,435
2016-09-10T09:26:41.299Z,435
2016-09-10T09:27:41.355Z,435
2016-09-10T09:28:41.377Z,430
2016-09-10T09:29:41.457Z,430
2016-09-10T09:30:41.603Z,425
2016-09-10T09:31:41.297Z,425
2016-09-10T09:32:41.809Z,425
2016-09-10T09:33:41.639Z,430
2016-09-10T09:34:41.632Z,420
2016-09-10T09:35:41.333Z,420
2016-09-10T09:36:41.628Z,420
2016-09-10T09:37:41.327Z,415
2016-09-10T09:38:41.645Z,415
2016-09-10T09:39:41.704Z,415
2016-09-10T09:40:41.410Z,410
2016-09-10T09:41:41.666Z,410
2016-09-10T09:42:41.489Z,410
2016-09-10T09:43:41.419Z,410
2016-09-10T09:44:41.678Z,405
2016-09-10T09:45:41.379Z,405
2016-09-10T09:46:41.385Z,405
2016-09-10T09:47:41.701Z,405
2016-09-10T09:48:41.493Z,405
2016-09-10T09:49:41.416Z,400
2016-09-10T09:50:41.387Z,400
2016-09-10T09:51:41.372Z,400
2016-09-10T09:52:41.449Z,395
2016-09-10T09:53:41.406Z,395
2016-09-10T09:54:41.727Z,395
2016-09-10T09:55:41.413Z,395
2016-09-10T09:56:41.424Z,390
2016-09-10T09:57:41.465Z,390
2016-09-10T09:58:41.424Z,390
2016-09-10T09:59:41.757Z,385
2016-09-10T10:00:41.519Z,385
2016-09-10T10:01:41.815Z,385
2016-09-10T10:02:41.475Z,380
2016-09-10T10:03:42.372Z,380
2016-09-10T10:04:41.452Z,380
2016-09-10T10:05:41.444Z,380
2016-09-10T10:06:43.129Z,375
2016-09-10T10:07:44.704Z,375
2016-09-10T10:08:42.648Z,375
2016-09-10T10:09:43.776Z,375
2016-09-10T10:10:43.631Z,370
2016-09-10T10:11:42.598Z,370
2016-09-10T10:12:41.509Z,370
2016-09-10T10:13:41.474Z,365
2016-09-10T10:14:42.087Z,365
2016-09-10T10:15:44.244Z,365
2016-09-10T10:16:43.801Z,365
2016-09-10T10:17:45.327Z,360
2016-09-10T10:18:43.370Z,360
2016-09-10T10:19:43.636Z,355
2016-09-10T10:20:42.687Z,355
2016-09-10T10:21:41.850Z,355
2016-09-10T10:22:41.799Z,350
2016-09-10T10:23:42.394Z,350
2016-09-10T10:24:42.606Z,350
2016-09-10T10:25:42.267Z,345
2016-09-10T10:26:42.672Z,345
2016-09-10T10:27:41.777Z,345
2016-09-10T10:28:41.860Z,345
2016-09-10T10:29:41.542Z,340
2016-09-10T10:30:41.845Z,340
2016-09-10T10:31:41.539Z,340
2016-09-10T10:32:41.578Z,340
2016-09-10T10:33:41.552Z,335
2016-09-10T10:34:42.221Z,335
2016-09-10T10:35:41.866Z,335
2016-09-10T10:36:41.582Z,330
2016-09-10T10:37:41.575Z,330
2016-09-10T10:38:41.887Z,330
2016-09-10T10:39:41.603Z,330
2016-09-10T10:40:41.663Z,330
2016-09-10T10:41:41.613Z,330
2016-09-10T10:42:41.569Z,325
2016-09-10T10:43:41.619Z,325
2016-09-10T10:44:42.199Z,325
2016-09-10T10:45:41.655Z,325
2016-09-10T10:46:42.227Z,320
2016-09-10T10:47:41.601Z,320
2016-09-10T10:48:41.675Z,320
2016-09-10T10:49:42.262Z,320
2016-09-10T10:50:41.615Z,320
2016-09-10T10:51:41.614Z,315
2016-09-10T10:52:41.633Z,315
2016-09-10T10:53:42.260Z,315
2016-09-10T10:54:41.630Z,315
2016-09-10T10:55:41.721Z,315
2016-09-10T10:56:41.705Z,315
2016-09-10T10:57:41.638Z,310
2016-09-10T10:58:41.744Z,310
2016-09-10T10:59:41.648Z,310
2016-09-10T11:00:43.593Z,310
2016-09-10T11:01:42.018Z,305
2016-09-10T11:02:41.663Z,305
2016-09-10T11:03:41.721Z,310
2016-09-10T11:04:41.675Z,305
2016-09-10T11:05:41.679Z,300
2016-09-10T11:06:41.707Z,300
2016-09-10T11:07:41.991Z,300
2016-09-10T11:08:41.699Z,300
2016-09-10T11:09:41.707Z,300
2016-09-10T11:10:41.766Z,300
2016-09-10T11:11:42.002Z,295
2016-09-10T11:12:41.708Z,295
2016-09-10T11:13:41.919Z,295
2016-09-10T11:14:41.833Z,295
2016-09-10T11:15:42.054Z,295
2016-09-10T11:16:41.721Z,295
2016-09-10T11:17:42.014Z,290
2016-09-10T11:18:42.026Z,290
2016-09-10T11:19:41.777Z,290
2016-09-10T11:20:41.738Z,290
2016-09-10T11:21:41.752Z,290
2016-09-10T11:22:41.762Z,290
2016-09-10T11:23:42.048Z,285
2016-09-10T11:25:44.947Z,285
2016-09-10T11:26:43.252Z,285
2016-09-10T11:27:44.799Z,285
2016-09-10T11:28:42.362Z,285
2016-09-10T11:29:42.172Z,285
2016-09-10T11:30:41.842Z,285
2016-09-10T11:31:42.087Z,280
2016-09-10T11:32:42.995Z,280
2016-09-10T11:33:45.352Z,280
2016-09-10T11:34:44.116Z,280
2016-09-10T11:35:45.804Z,280
2016-09-10T11:36:44.189Z,280
2016-09-10T11:37:42.413Z,280
2016-09-10T11:38:42.611Z,280
2016-09-10T11:39:41.812Z,280
2016-09-10T11:40:41.868Z,275
2016-09-10T11:41:43.971Z,275
2016-09-10T11:42:42.419Z,275
2016-09-10T11:43:42.531Z,275
2016-09-10T11:44:57.508Z,275
2016-09-10T11:45:42.614Z,275
2016-09-10T11:46:43.236Z,275
2016-09-10T11:47:42.766Z,275
2016-09-10T11:48:41.841Z,275
2016-09-10T11:49:41.852Z,275
2016-09-10T11:50:41.838Z,270
2016-09-10T11:51:42.160Z,270
2016-09-10T11:52:41.865Z,270
2016-09-10T11:53:41.977Z,270
2016-09-10T11:54:41.888Z,270
2016-09-10T11:55:42.197Z,270
2016-09-10T11:56:41.891Z,270
2016-09-10T11:57:42.505Z,270
2016-09-10T11:58:42.279Z,270
2016-09-10T11:59:41.891Z,270
2016-09-10T12:00:42.237Z,265
2016-09-10T12:01:42.069Z,265
2016-09-10T12:02:42.209Z,265
2016-09-10T12:03:41.897Z,265
2016-09-10T12:04:41.919Z,265
2016-09-10T12:05:42.226Z,265
2016-09-10T12:06:41.916Z,260
2016-09-10T12:07:42.279Z,260
2016-09-10T12:08:42.036Z,260
2016-09-10T12:09:42.159Z,260
2016-09-10T12:10:41.940Z,260
2016-09-10T12:11:41.949Z,260
2016-09-10T12:12:42.549Z,260
2016-09-10T12:13:42.029Z,260
2016-09-10T12:14:41.970Z,260
2016-09-10T12:15:41.973Z,260
2016-09-10T12:16:44.477Z,260
2016-09-10T12:17:42.580Z,260
2016-09-10T12:18:41.977Z,260
2016-09-10T12:19:42.419Z,255
2016-09-10T12:20:42.309Z,255
2016-09-10T12:21:42.001Z,255
2016-09-10T12:22:42.297Z,255
2016-09-10T12:23:42.514Z,255
2016-09-10T12:24:41.994Z,255
2016-09-10T12:25:42.009Z,255
2016-09-10T12:26:42.439Z,255
2016-09-10T12:27:42.382Z,255
2016-09-10T12:28:42.375Z,255
2016-09-10T12:29:42.372Z,255
2016-09-10T12:30:42.030Z,255
2016-09-10T12:31:42.342Z,255
2016-09-10T12:32:42.038Z,255
2016-09-10T12:33:42.084Z,255
2016-09-10T12:34:42.061Z,250
2016-09-10T12:35:42.100Z,250
2016-09-10T12:36:42.071Z,250
2016-09-10T12:37:42.143Z,250
2016-09-10T12:38:42.268Z,250
2016-09-10T12:39:42.095Z,255
2016-09-10T12:40:42.939Z,250
2016-09-10T12:41:42.097Z,250
2016-09-10T12:43:45.090Z,250
2016-09-10T12:44:43.555Z,250
2016-09-10T12:45:42.407Z,255
2016-09-10T12:46:43.009Z,255
2016-09-10T12:47:43.120Z,255
2016-09-10T12:48:42.348Z,260
2016-09-10T12:49:42.254Z,265
2016-09-10T12:50:43.118Z,270
2016-09-10T12:51:45.335Z,270
2016-09-10T12:52:57.980Z,280
2016-09-10T12:53:57.286Z,285
2016-09-10T12:54:45.018Z,290
2016-09-10T12:55:42.786Z,290
2016-09-10T12:56:43.100Z,290
2016-09-10T12:57:42.444Z,285
2016-09-10T12:58:42.189Z,275
2016-09-10T12:59:42.910Z,270
2016-09-10T13:00:43.621Z,265
2016-09-10T13:01:42.748Z,265
2016-09-10T13:02:42.441Z,260
2016-09-10T13:03:42.507Z,255
2016-09-10T13:04:42.512Z,255
2016-09-10T13:05:42.349Z,255
2016-09-10T13:06:42.278Z,255
2016-09-10T13:07:42.492Z,255
2016-09-10T13:08:42.211Z,255
2016-09-10T13:09:42.655Z,250
2016-09-10T13:10:42.246Z,250
2016-09-10T13:11:42.224Z,255
2016-09-10T13:12:42.562Z,255
2016-09-10T13:13:42.249Z,255
2016-09-10T13:14:42.854Z,255
2016-09-10T13:15:42.321Z,255
2016-09-10T13:16:42.221Z,255
2016-09-10T13:17:42.321Z,255
2016-09-10T13:18:42.241Z,255
2016-09-10T13:19:42.250Z,255
2016-09-10T13:20:42.245Z,255
2016-09-10T13:21:42.590Z,255
2016-09-10T13:22:42.643Z,255
2016-09-10T13:23:42.256Z,255
2016-09-10T13:24:42.312Z,250
2016-09-10T13:25:42.288Z,250
2016-09-10T13:26:42.678Z,250
2016-09-10T13:27:42.343Z,250
2016-09-10T13:28:42.294Z,245
2016-09-10T13:29:42.308Z,250
2016-09-10T13:30:42.305Z,240
2016-09-10T13:31:42.912Z,240
2016-09-10T13:32:42.644Z,240
2016-09-10T13:33:42.372Z,245
2016-09-10T13:34:42.333Z,245
2016-09-10T13:35:42.339Z,245
2016-09-10T13:36:42.714Z,245
2016-09-10T13:37:42.363Z,245
2016-09-10T13:38:42.336Z,250
2016-09-10T13:39:42.347Z,250
2016-09-10T13:40:42.346Z,250
2016-09-10T13:41:42.665Z,250
2016-09-10T13:42:42.562Z,250
2016-09-10T13:43:42.668Z,250
2016-09-10T13:44:42.671Z,245
2016-09-10T13:45:42.412Z,245
2016-09-10T13:46:42.667Z,240
2016-09-10T13:47:42.422Z,240
2016-09-10T13:48:42.440Z,240
2016-09-10T13:49:42.416Z,235
2016-09-10T13:50:42.388Z,235
2016-09-10T13:51:42.397Z,235
2016-09-10T13:52:42.573Z,230
2016-09-10T13:53:42.424Z,230
2016-09-10T13:54:42.413Z,225
2016-09-10T13:55:42.405Z,225
2016-09-10T13:56:42.423Z,225
2016-09-10T13:57:42.477Z,225
2016-09-10T13:58:42.429Z,225
2016-09-10T13:59:42.447Z,225
2016-09-10T14:00:44.808Z,225
2016-09-10T14:02:44.430Z,220
2016-09-10T14:03:43.201Z,220
2016-09-10T14:04:44.161Z,220
2016-09-10T14:05:42.469Z,220
2016-09-10T14:06:42.498Z,220
2016-09-10T14:07:43.100Z,220
2016-09-10T14:08:44.074Z,220
2016-09-10T14:09:45.149Z,220
2016-09-10T14:10:44.325Z,220
2016-09-10T14:11:46.657Z,220
2016-09-10T14:12:59.525Z,220
2016-09-10T14:13:43.960Z,220
2016-09-10T14:14:44.518Z,220
2016-09-10T14:15:42.879Z,220
2016-09-10T14:16:43.252Z,220
2016-09-10T14:17:43.634Z,220
2016-09-10T14:18:42.678Z,215
2016-09-10T14:19:43.139Z,215
2016-09-10T14:20:44.030Z,215
2016-09-10T14:21:42.637Z,210
2016-09-10T14:22:42.549Z,210